createdAt,value
2019-06-08T00:00:08.288Z,1.07
2019-06-08T00:02:36.765Z,0.85
2019-06-08T00:05:06.803Z,0.95
2019-06-08T00:07:35.257Z,0.85
2019-06-08T00:10:07.860Z,0.75
2019-06-08T00:12:36.309Z,1.10
2019-06-08T00:15:06.825Z,0.98
2019-06-08T00:17:38.772Z,0.82
2019-06-08T00:20:07.963Z,1.00
2019-06-08T00:22:36.566Z,0.93
2019-06-08T00:25:05.288Z,0.98
2019-06-08T00:27:33.734Z,0.90
2019-06-08T00:30:02.687Z,1.00
2019-06-08T00:32:31.287Z,1.00
2019-06-08T00:34:59.731Z,0.88
2019-06-08T00:37:28.221Z,1.00
2019-06-08T00:39:56.680Z,0.90
2019-06-08T00:42:25.625Z,1.10
2019-06-08T00:44:54.198Z,0.80
2019-06-08T00:47:22.743Z,0.95
2019-06-08T00:49:51.213Z,1.10
2019-06-08T00:52:20.957Z,0.80
2019-06-08T00:54:49.519Z,1.00
2019-06-08T00:57:18.024Z,1.20
2019-06-08T00:59:46.477Z,1.10
2019-06-08T01:02:14.919Z,1.00
2019-06-08T01:04:43.410Z,1.27
2019-06-08T01:07:11.936Z,0.80
2019-06-08T01:09:40.489Z,0.80
2019-06-08T01:12:08.994Z,1.10
2019-06-08T01:14:37.485Z,0.90
2019-06-08T01:17:05.938Z,1.07
2019-06-08T01:19:34.490Z,0.85
2019-06-08T01:22:02.972Z,0.90
2019-06-08T01:24:31.502Z,0.90
2019-06-08T01:27:00.016Z,0.75
2019-06-08T01:29:28.521Z,0.70
2019-06-08T01:31:56.960Z,0.95
2019-06-08T01:34:26.872Z,1.00
2019-06-08T01:36:55.569Z,0.90
2019-06-08T01:39:25.164Z,1.20
2019-06-08T01:41:53.796Z,1.02
2019-06-08T01:44:23.485Z,1.10
2019-06-08T01:46:52.095Z,0.93
2019-06-08T01:49:20.618Z,1.00
2019-06-08T01:51:49.104Z,1.00
2019-06-08T01:54:17.626Z,0.90
2019-06-08T01:56:46.377Z,0.90
2019-06-08T01:59:14.818Z,0.90
2019-06-08T02:01:43.307Z,0.95
2019-06-08T02:04:11.826Z,1.20
2019-06-08T02:06:40.322Z,1.40
2019-06-08T02:09:09.613Z,1.20
2019-06-08T02:11:38.128Z,0.90
2019-06-08T02:14:06.977Z,0.85
2019-06-08T02:16:36.212Z,1.00
2019-06-08T02:19:04.931Z,1.00
2019-06-08T02:21:33.385Z,1.20
2019-06-08T02:24:01.863Z,0.90
2019-06-08T02:26:31.016Z,1.00
2019-06-08T02:29:00.753Z,1.22
2019-06-08T02:31:30.692Z,1.10
2019-06-08T02:33:59.424Z,1.05
2019-06-08T02:36:28.819Z,1.10
2019-06-08T02:38:58.149Z,1.17
2019-06-08T02:41:26.576Z,1.10
2019-06-08T02:43:55.071Z,1.15
2019-06-08T02:46:23.518Z,1.10
2019-06-08T02:49:03.662Z,0.98
2019-06-08T02:51:22.597Z,0.90
2019-06-08T02:53:51.483Z,0.95
2019-06-08T02:56:21.687Z,1.10
2019-06-08T02:58:51.896Z,1.10
2019-06-08T03:01:22.431Z,1.20
2019-06-08T03:03:52.886Z,0.93
2019-06-08T03:06:22.027Z,0.88
2019-06-08T03:08:51.813Z,1.45
2019-06-08T03:11:21.028Z,1.07
2019-06-08T03:13:50.580Z,1.10
2019-06-08T03:16:19.050Z,1.10
2019-06-08T03:18:47.501Z,1.10
2019-06-08T03:21:15.998Z,0.80
2019-06-08T03:23:44.440Z,0.85
2019-06-08T03:26:12.942Z,1.05
2019-06-08T03:28:43.689Z,0.90
2019-06-08T03:31:11.972Z,0.95
2019-06-08T03:33:50.860Z,1.05
2019-06-08T03:36:10.708Z,1.10
2019-06-08T03:38:40.246Z,1.30
2019-06-08T03:41:09.178Z,1.07
2019-06-08T03:43:40.090Z,1.00
2019-06-08T03:46:07.830Z,1.00
2019-06-08T03:48:37.195Z,0.95
2019-06-08T03:51:06.481Z,1.15
2019-06-08T03:53:35.746Z,1.10
2019-06-08T03:56:04.727Z,1.10
2019-06-08T03:58:34.314Z,1.10
2019-06-08T04:01:03.472Z,1.10
2019-06-08T04:03:32.017Z,1.12
2019-06-08T04:06:00.467Z,0.90
2019-06-08T04:08:28.911Z,1.00
2019-06-08T04:10:57.393Z,1.07
2019-06-08T04:13:25.837Z,1.10
2019-06-08T04:15:54.343Z,1.10
2019-06-08T04:18:22.860Z,1.10
2019-06-08T04:20:51.707Z,1.32
2019-06-08T04:23:20.329Z,1.17
2019-06-08T04:25:50.449Z,1.30
2019-06-08T04:28:19.159Z,0.90
2019-06-08T04:30:49.938Z,1.00
2019-06-08T04:33:17.924Z,1.17
2019-06-08T04:35:47.261Z,1.02
2019-06-08T04:38:15.828Z,1.20
2019-06-08T04:40:46.003Z,1.20
2019-06-08T04:43:14.495Z,1.00
2019-06-08T04:45:43.573Z,0.90
2019-06-08T04:48:13.151Z,1.00
2019-06-08T04:50:43.006Z,1.00
2019-06-08T04:53:11.819Z,1.00
2019-06-08T04:55:40.982Z,0.93
2019-06-08T04:58:09.657Z,0.90
2019-06-08T05:00:39.096Z,0.95
2019-06-08T05:03:08.169Z,1.00
2019-06-08T05:05:36.620Z,1.37
2019-06-08T05:08:05.371Z,1.17
2019-06-08T05:10:33.821Z,1.02
2019-06-08T05:13:02.314Z,1.10
2019-06-08T05:15:30.741Z,1.10
2019-06-08T05:17:59.193Z,1.45
2019-06-08T05:20:38.465Z,1.10
2019-06-08T05:22:57.832Z,1.20
2019-06-08T05:25:26.498Z,1.30
2019-06-08T05:27:54.933Z,1.00
2019-06-08T05:30:23.770Z,1.10
2019-06-08T05:32:52.219Z,1.00
2019-06-08T05:35:20.708Z,1.00
2019-06-08T05:37:49.823Z,1.40
2019-06-08T05:40:18.766Z,1.20
2019-06-08T05:42:47.923Z,1.15
2019-06-08T05:45:16.507Z,1.30
2019-06-08T05:47:45.821Z,1.15
2019-06-08T05:50:14.561Z,1.10
2019-06-08T05:52:44.162Z,1.05
2019-06-08T05:55:12.920Z,1.10
2019-06-08T05:57:42.108Z,1.20
2019-06-08T06:00:12.185Z,1.00
2019-06-08T06:02:40.687Z,1.30
2019-06-08T06:05:09.395Z,1.20
2019-06-08T06:07:37.841Z,1.17
2019-06-08T06:10:07.112Z,1.10
2019-06-08T06:12:35.597Z,1.50
2019-06-08T06:15:06.438Z,1.10
2019-06-08T06:17:34.951Z,1.60
2019-06-08T06:20:05.167Z,1.17
2019-06-08T06:22:33.616Z,0.98
2019-06-08T06:25:02.128Z,1.27
2019-06-08T06:27:30.636Z,0.90
2019-06-08T06:29:59.092Z,1.32
2019-06-08T06:32:27.566Z,1.40
2019-06-08T06:34:56.091Z,1.35
2019-06-08T06:37:24.726Z,1.45
2019-06-08T06:39:53.248Z,1.40
2019-06-08T06:42:24.814Z,1.02
2019-06-08T06:44:52.454Z,1.32
2019-06-08T06:47:21.149Z,1.35
2019-06-08T06:49:50.668Z,1.22
2019-06-08T06:52:19.343Z,1.47
2019-06-08T06:54:48.958Z,1.35
2019-06-08T06:57:17.530Z,1.32
2019-06-08T06:59:47.137Z,1.40
2019-06-08T07:02:16.177Z,1.30
2019-06-08T07:04:45.859Z,1.20
2019-06-08T07:07:14.388Z,1.57
2019-06-08T07:09:44.300Z,1.30
2019-06-08T07:12:12.904Z,1.40
2019-06-08T07:14:41.392Z,1.40
2019-06-08T07:17:09.834Z,1.50
2019-06-08T07:19:38.325Z,1.30
2019-06-08T07:22:06.773Z,1.40
2019-06-08T07:24:35.249Z,1.80
2019-06-08T07:27:03.704Z,1.05
2019-06-08T07:29:32.201Z,1.42
2019-06-08T07:32:00.654Z,1.55
2019-06-08T07:34:29.110Z,1.50
2019-06-08T07:36:57.613Z,1.50
2019-06-08T07:39:26.049Z,1.50
2019-06-08T07:41:55.848Z,1.60
2019-06-08T07:44:24.497Z,1.30
2019-06-08T07:46:53.762Z,1.50
2019-06-08T07:49:22.334Z,1.77
2019-06-08T07:52:03.909Z,1.65
2019-06-08T07:54:21.166Z,1.72
2019-06-08T07:56:51.116Z,1.37
2019-06-08T07:59:20.004Z,1.42
2019-06-08T08:01:48.502Z,1.60
2019-06-08T08:04:17.021Z,1.50
2019-06-08T08:06:45.516Z,1.27
2019-06-08T08:09:13.988Z,1.60
2019-06-08T08:11:42.458Z,1.65
2019-06-08T08:14:10.944Z,1.72
2019-06-08T08:16:39.408Z,1.50
2019-06-08T08:19:07.916Z,1.85
2019-06-08T08:21:38.030Z,1.70
2019-06-08T08:24:07.333Z,1.55
2019-06-08T08:26:38.933Z,1.40
2019-06-08T08:29:08.335Z,1.60
2019-06-08T08:31:37.381Z,1.50
2019-06-08T08:34:08.775Z,1.70
2019-06-08T08:36:38.088Z,1.20
2019-06-08T08:39:08.657Z,1.60
2019-06-08T08:41:39.008Z,1.55
2019-06-08T08:44:07.958Z,1.82
2019-06-08T08:46:38.730Z,1.57
2019-06-08T08:49:12.077Z,1.40
2019-06-08T08:51:37.792Z,1.47
2019-06-08T08:54:08.432Z,1.85
2019-06-08T08:56:38.335Z,1.72
2019-06-08T08:59:07.844Z,1.30
2019-06-08T09:01:38.314Z,1.62
2019-06-08T09:04:08.767Z,1.70
2019-06-08T09:06:38.099Z,1.72
2019-06-08T09:09:08.909Z,1.90
2019-06-08T09:11:38.360Z,1.70
2019-06-08T09:14:13.801Z,1.50
2019-06-08T09:16:38.475Z,1.47
2019-06-08T09:19:08.551Z,1.57
2019-06-08T09:21:38.398Z,1.47
2019-06-08T09:24:07.759Z,1.55
2019-06-08T09:26:38.207Z,1.17
2019-06-08T09:29:10.624Z,1.85
2019-06-08T09:31:39.067Z,1.70
2019-06-08T09:34:14.158Z,1.95
2019-06-08T09:36:40.446Z,1.55
2019-06-08T09:39:12.087Z,1.47
2019-06-08T09:41:38.726Z,1.73
2019-06-08T09:44:10.619Z,1.82
2019-06-08T09:46:38.490Z,1.42
2019-06-08T09:49:09.311Z,1.60
2019-06-08T09:51:37.954Z,1.40
2019-06-08T09:54:11.879Z,1.92
2019-06-08T09:56:37.937Z,1.77
2019-06-08T09:59:10.469Z,1.70
2019-06-08T10:01:38.393Z,1.60
2019-06-08T10:04:09.190Z,1.75
2019-06-08T10:06:37.728Z,2.15
2019-06-08T10:09:09.062Z,1.90
2019-06-08T10:11:38.048Z,1.70
2019-06-08T10:14:11.683Z,1.90
2019-06-08T10:16:38.159Z,1.57
2019-06-08T10:19:10.053Z,1.65
2019-06-08T10:21:38.518Z,1.52
2019-06-08T10:24:09.565Z,1.80
2019-06-08T10:26:37.803Z,1.50
2019-06-08T10:29:10.020Z,1.45
2019-06-08T10:31:43.149Z,1.50
2019-06-08T10:34:10.918Z,1.75
2019-06-08T10:36:38.321Z,1.40
2019-06-08T10:39:11.353Z,1.70
2019-06-08T10:41:38.838Z,1.77
2019-06-08T10:44:11.174Z,1.70
2019-06-08T10:46:40.303Z,1.70
2019-06-08T10:49:11.882Z,1.65
2019-06-08T10:51:40.785Z,1.75
2019-06-08T10:54:09.449Z,1.70
2019-06-08T10:56:38.820Z,1.42
2019-06-08T10:59:10.557Z,1.50
2019-06-08T11:01:38.523Z,1.50
2019-06-08T11:04:07.630Z,1.60
2019-06-08T11:06:40.122Z,1.60
2019-06-08T11:09:12.763Z,1.57
2019-06-08T11:11:38.481Z,1.80
2019-06-08T11:14:12.102Z,1.45
2019-06-08T11:16:38.546Z,1.40
2019-06-08T11:19:11.451Z,1.27
2019-06-08T11:21:38.576Z,1.62
2019-06-08T11:24:23.308Z,1.40
2019-06-08T11:26:40.114Z,1.27
2019-06-08T11:29:11.597Z,1.47
2019-06-08T11:31:39.197Z,1.35
2019-06-08T11:34:08.669Z,1.40
2019-06-08T11:36:39.399Z,1.82
2019-06-08T11:39:10.911Z,1.87
2019-06-08T11:41:38.509Z,1.42
2019-06-08T11:44:11.635Z,1.47
2019-06-08T11:46:38.414Z,1.42
2019-06-08T11:49:11.753Z,1.57
2019-06-08T11:51:37.989Z,1.15
2019-06-08T11:54:25.537Z,1.55
2019-06-08T11:56:37.598Z,1.40
2019-06-08T11:59:07.361Z,1.40
2019-06-08T12:01:35.817Z,1.37
2019-06-08T12:04:05.704Z,1.45
2019-06-08T12:06:34.418Z,1.37
2019-06-08T12:09:04.125Z,1.50
2019-06-08T12:11:32.997Z,1.60
2019-06-08T12:14:02.670Z,1.42
2019-06-08T12:16:31.255Z,1.70
2019-06-08T12:18:59.702Z,1.50
2019-06-08T12:21:28.189Z,1.57
2019-06-08T12:23:56.717Z,1.45
2019-06-08T12:26:25.211Z,1.72
2019-06-08T12:28:53.674Z,1.75
2019-06-08T12:31:22.913Z,1.60
2019-06-08T12:33:51.442Z,1.37
2019-06-08T12:36:20.953Z,1.60
2019-06-08T12:38:49.669Z,1.55
2019-06-08T12:41:19.261Z,1.37
2019-06-08T12:43:48.086Z,1.50
2019-06-08T12:46:19.172Z,1.50
2019-06-08T12:48:46.892Z,1.20
2019-06-08T12:51:17.247Z,1.40
2019-06-08T12:53:45.644Z,1.40
2019-06-08T12:56:14.810Z,1.17
2019-06-08T12:58:43.615Z,1.80
2019-06-08T13:01:12.769Z,1.32
2019-06-08T13:03:41.509Z,1.50
2019-06-08T13:06:12.065Z,1.50
2019-06-08T13:08:40.272Z,1.50
2019-06-08T13:11:09.794Z,1.40
2019-06-08T13:13:38.943Z,1.45
2019-06-08T13:16:08.532Z,1.50
2019-06-08T13:18:40.325Z,1.60
2019-06-08T13:21:18.690Z,1.20
2019-06-08T13:23:38.324Z,1.30
2019-06-08T13:26:08.883Z,1.40
2019-06-08T13:28:38.514Z,1.50
2019-06-08T13:31:07.865Z,1.40
2019-06-08T13:33:38.263Z,1.62
2019-06-08T13:36:07.071Z,1.47
2019-06-08T13:38:37.943Z,1.47
2019-06-08T13:41:05.707Z,1.60
2019-06-08T13:43:34.190Z,1.60
2019-06-08T13:46:02.657Z,1.57
2019-06-08T13:48:31.158Z,1.37
2019-06-08T13:50:59.623Z,1.32
2019-06-08T13:53:31.615Z,1.75
2019-06-08T13:55:58.320Z,1.70
2019-06-08T13:58:33.250Z,1.55
2019-06-08T14:00:59.668Z,1.85
2019-06-08T14:03:27.848Z,1.70
2019-06-08T14:05:57.298Z,1.72
2019-06-08T14:08:32.720Z,1.70
2019-06-08T14:11:00.530Z,1.60
2019-06-08T14:13:33.884Z,1.60
2019-06-08T14:15:58.585Z,1.50
2019-06-08T14:18:33.042Z,1.82
2019-06-08T14:20:58.706Z,1.80
2019-06-08T14:23:27.765Z,1.80
2019-06-08T14:25:57.806Z,1.77
2019-06-08T14:28:28.582Z,1.35
2019-06-08T14:30:59.197Z,1.50
2019-06-08T14:33:31.699Z,1.60
2019-06-08T14:35:59.181Z,1.92
2019-06-08T14:38:37.704Z,1.62
2019-06-08T14:40:59.056Z,1.85
2019-06-08T14:43:30.012Z,1.82
2019-06-08T14:45:58.063Z,1.50
2019-06-08T14:48:32.089Z,1.82
2019-06-08T14:50:58.623Z,1.77
2019-06-08T14:53:26.886Z,1.55
2019-06-08T14:56:05.743Z,1.80
2019-06-08T14:58:29.304Z,1.50
2019-06-08T15:00:57.888Z,1.80
2019-06-08T15:03:27.240Z,1.82
2019-06-08T15:05:57.738Z,1.67
2019-06-08T15:08:28.309Z,1.67
2019-06-08T15:10:58.184Z,1.47
2019-06-08T15:13:28.630Z,1.90
2019-06-08T15:16:00.380Z,1.47
2019-06-08T15:18:28.715Z,1.75
2019-06-08T15:20:58.087Z,1.50
2019-06-08T15:23:29.108Z,1.30
2019-06-08T15:35:38.901Z,1.60
2019-06-08T15:38:08.383Z,1.30
2019-06-08T15:40:37.885Z,1.45
2019-06-08T15:43:08.669Z,1.50
2019-06-08T15:45:37.011Z,1.65
2019-06-08T15:48:07.757Z,1.60
2019-06-08T15:50:37.928Z,1.42
2019-06-08T15:53:08.315Z,1.40
2019-06-08T15:55:37.984Z,1.40
2019-06-08T15:58:09.019Z,1.40
2019-06-08T16:00:37.359Z,1.60
2019-06-08T16:03:05.841Z,1.32
2019-06-08T16:05:34.361Z,1.80
2019-06-08T16:08:02.823Z,1.47
2019-06-08T16:10:32.308Z,1.42
2019-06-08T16:13:00.927Z,1.30
2019-06-08T16:15:29.438Z,1.90
2019-06-08T16:17:57.902Z,1.50
2019-06-08T16:20:27.547Z,1.20
2019-06-08T16:22:56.410Z,1.30
2019-06-08T16:25:25.587Z,1.42
2019-06-08T16:27:54.326Z,1.50
2019-06-08T16:30:22.862Z,1.30
2019-06-08T16:32:51.366Z,1.30
2019-06-08T16:35:19.829Z,1.22
2019-06-08T16:37:48.328Z,1.45
2019-06-08T16:40:16.929Z,1.30
2019-06-08T16:42:45.458Z,1.50
2019-06-08T16:45:14.160Z,1.55
2019-06-08T16:47:43.878Z,1.60
2019-06-08T16:50:23.892Z,1.50
2019-06-08T16:52:43.227Z,1.40
2019-06-08T16:55:11.894Z,1.60
2019-06-08T16:57:41.283Z,1.40
2019-06-08T17:00:30.718Z,1.17
2019-06-08T17:02:41.652Z,1.27
2019-06-08T17:05:10.628Z,1.75
2019-06-08T17:07:39.759Z,1.47
2019-06-08T17:10:08.974Z,1.70
2019-06-08T17:12:37.496Z,1.35
2019-06-08T17:15:06.808Z,1.92
2019-06-08T17:17:36.582Z,1.47
2019-06-08T17:20:07.377Z,1.52
2019-06-08T17:22:36.790Z,1.50
2019-06-08T17:25:09.072Z,1.50
2019-06-08T17:27:38.819Z,1.50
2019-06-08T17:30:09.449Z,1.60
2019-06-08T17:32:38.631Z,1.45
2019-06-08T17:35:08.505Z,1.62
2019-06-08T17:37:38.016Z,1.60
2019-06-08T17:40:07.583Z,1.40
2019-06-08T17:42:37.474Z,1.80
2019-06-08T17:45:09.646Z,1.40
2019-06-08T17:47:38.517Z,1.70
2019-06-08T17:50:07.927Z,1.70
2019-06-08T17:52:37.063Z,1.60
2019-06-08T17:55:07.380Z,1.55
2019-06-08T17:57:44.796Z,1.98
2019-06-08T18:00:09.839Z,1.35
2019-06-08T18:02:41.939Z,1.57
2019-06-08T18:05:09.883Z,1.75
2019-06-08T18:07:40.119Z,1.60
2019-06-08T18:10:09.157Z,2.12
2019-06-08T18:12:41.059Z,1.40
2019-06-08T18:15:09.236Z,1.52
2019-06-08T18:17:42.058Z,1.45
2019-06-08T18:20:13.651Z,1.47
2019-06-08T18:25:11.650Z,1.55
2019-06-08T18:27:42.375Z,1.60
2019-06-08T18:30:12.309Z,1.40
2019-06-08T18:32:42.473Z,1.60
2019-06-08T18:35:11.974Z,1.50
2019-06-08T18:37:41.311Z,1.60
2019-06-08T18:40:12.937Z,1.32
2019-06-08T18:42:42.620Z,1.60
2019-06-08T18:45:13.061Z,1.72
2019-06-08T18:47:42.344Z,1.45
2019-06-08T18:50:12.879Z,1.55
2019-06-08T18:52:44.734Z,1.55
2019-06-08T18:55:13.304Z,1.55
2019-06-08T18:57:42.754Z,1.50
2019-06-08T19:00:13.181Z,1.70
2019-06-08T19:02:43.748Z,1.50
2019-06-08T19:05:12.676Z,1.40
2019-06-08T19:07:43.551Z,1.40
2019-06-08T19:10:15.398Z,1.80
2019-06-08T19:12:44.761Z,1.52
2019-06-08T19:15:17.843Z,1.60
2019-06-08T19:17:50.326Z,1.50
2019-06-08T19:20:16.999Z,1.80
2019-06-08T19:22:53.322Z,1.35
2019-06-08T19:25:17.611Z,1.60
2019-06-08T19:27:51.826Z,1.85
2019-06-08T19:30:20.118Z,1.67
2019-06-08T19:32:50.500Z,1.60
2019-06-08T19:35:18.418Z,1.35
2019-06-08T19:37:53.283Z,1.50
2019-06-08T19:40:17.718Z,1.45
2019-06-08T19:42:55.435Z,1.25
2019-06-08T19:45:18.189Z,1.65
2019-06-08T19:47:46.693Z,1.72
2019-06-08T19:50:17.245Z,1.85
2019-06-08T19:52:50.173Z,1.60
2019-06-08T19:55:17.927Z,1.60
2019-06-08T19:57:48.563Z,1.60
2019-06-08T20:00:18.013Z,1.40
2019-06-08T20:02:47.785Z,1.40
2019-06-08T20:05:17.488Z,1.85
2019-06-08T20:07:47.045Z,1.67
2019-06-08T20:10:17.581Z,1.52
2019-06-08T20:12:48.337Z,1.67
2019-06-08T20:15:18.399Z,1.75
2019-06-08T20:17:48.891Z,1.40
2019-06-08T20:20:18.317Z,1.62
2019-06-08T20:22:50.311Z,1.95
2019-06-08T20:25:17.918Z,1.60
2019-06-08T20:27:49.739Z,1.62
2019-06-08T20:30:17.466Z,1.37
2019-06-08T20:32:47.209Z,1.80
2019-06-08T20:35:17.442Z,1.90
2019-06-08T20:37:46.123Z,1.72
2019-06-08T20:40:14.968Z,1.98
2019-06-08T20:42:44.178Z,2.08
2019-06-08T20:45:13.092Z,1.60
2019-06-08T20:47:42.396Z,1.80
2019-06-08T20:50:11.090Z,1.80
2019-06-08T20:52:39.588Z,1.72
2019-06-08T20:55:09.180Z,1.82
2019-06-08T20:57:37.739Z,2.00
2019-06-08T21:00:11.786Z,1.85
2019-06-08T21:02:39.520Z,1.98
2019-06-08T21:05:08.154Z,1.98
2019-06-08T21:07:36.596Z,1.75
2019-06-08T21:10:08.327Z,1.87
2019-06-08T21:12:37.937Z,1.63
2019-06-08T21:15:07.826Z,1.60
2019-06-08T21:17:38.422Z,1.70
2019-06-08T21:20:08.600Z,1.80
2019-06-08T21:22:37.202Z,1.50
2019-06-08T21:25:08.917Z,1.55
2019-06-08T21:27:38.519Z,1.80
2019-06-08T21:30:19.846Z,1.70
2019-06-08T21:32:38.107Z,2.45
2019-06-08T21:35:07.798Z,2.30
2019-06-08T21:37:37.737Z,1.67
2019-06-08T21:40:08.553Z,1.77
2019-06-08T21:42:37.479Z,1.47
2019-06-08T21:45:09.723Z,1.72
2019-06-08T21:47:37.966Z,1.70
2019-06-08T21:50:08.229Z,1.60
2019-06-08T21:52:36.847Z,1.90
